Tammy J — SYC1234 — position and weather

sailwx.info

Track history (hours):
 
Tides and Currents Weather Stations Pressure Air Temp Water Temp Dewpoint Dewpoint Depression Visibility Wind Speed Wind Dir Waves Ship Positions

Tammy J

Last reported at 2018-Jun-19 12:27 UTC. Time now 2018-Jun-19 12:33 UTC.
Position N 51°03' W 127°31'.

Length 16 m.

Type: Pleasure craft. MMSI: 338164347.

Date/timePositionNaut miles runAvg speedWind from/ knotsBaromVisibWave heightAir tempDewpointWater temp
2018-Jun-19 12:27N 51°03' W 127°31'0 0.0
2018-Jun-19 11:57N 51°03' W 127°31'0 0.0
2018-Jun-19 11:27N 51°03' W 127°31'0 0.0
2018-Jun-19 10:51N 51°03' W 127°31'0 0.0
2018-Jun-19 10:27N 51°03' W 127°31'0 0.0
2018-Jun-19 09:57N 51°03' W 127°31'0 0.0
2018-Jun-19 09:21N 51°03' W 127°31'0 0.0
2018-Jun-19 08:51N 51°03' W 127°31'0 0.0
2018-Jun-19 08:27N 51°03' W 127°31'0 0.0
2018-Jun-19 07:57N 51°03' W 127°31'0 0.0
2018-Jun-19 07:27N 51°03' W 127°31'0 0.0
2018-Jun-19 06:51N 51°03' W 127°31'0 0.0
2018-Jun-19 06:27N 51°03' W 127°31'0 0.0
2018-Jun-19 05:57N 51°03' W 127°31'0 0.0
2018-Jun-19 05:27N 51°03' W 127°31'0 0.0
2018-Jun-19 04:53N 51°03' W 127°31'0 0.0
2018-Jun-19 04:30N 51°03' W 127°31'0 0.0
2018-Jun-19 03:54N 51°03' W 127°31'0 0.0
2018-Jun-19 03:30N 51°03' W 127°31'0 0.0
2018-Jun-19 03:00N 51°03' W 127°31'0 0.0
2018-Jun-19 02:30N 51°03' W 127°31'0 0.0
2018-Jun-19 02:00N 51°03' W 127°31'0 0.0
2018-Jun-19 01:30N 51°03' W 127°31'0 0.0
2018-Jun-19 01:00N 51°03' W 127°31'0 0.0
2018-Jun-19 00:30N 51°03' W 127°31'0 0.0
2018-Jun-19 00:00N 51°03' W 127°31'0 0.0
2018-Jun-18 23:24N 51°03' W 127°31'0 0.0
2018-Jun-18 22:54N 51°03' W 127°31'1 2.0
2018-Jun-18 22:28N 51°02' W 127°31'3 7.3
2018-Jun-18 22:00N 50°59' W 127°32'5 9.5
2018-Jun-18 21:29N 50°56' W 127°26'5 9.3
2018-Jun-18 20:59N 50°52' W 127°22'5 9.9
2018-Jun-18 20:28N 50°47' W 127°18'77 3.4
2018-Jun-17 21:55N 50°19' W 125°25'4 9.5
2018-Jun-17 21:28N 50°15' W 125°23'511.0
2018-Jun-17 20:59N 50°10' W 125°22'510.7
2018-Jun-17 20:30N 50°06' W 125°17'611.7
2018-Jun-17 19:59N 50°00' W 125°12'611.2
2018-Jun-17 19:25N 49°55' W 125°06'5 9.8
2018-Jun-17 18:57N 49°52' W 125°02'5 9.9
2018-Jun-17 18:28N 49°48' W 124°57'510.9
2018-Jun-17 18:00N 49°44' W 124°52'510.5
2018-Jun-17 17:29N 49°40' W 124°46'510.1
2018-Jun-17 16:59N 49°36' W 124°41'61 3.5
2018-Jun-16 23:24N 48°56' W 123°31'5 9.6
2018-Jun-16 22:52N 48°52' W 123°26'7 9.3
2018-Jun-16 22:07N 48°45' W 123°23'1 9.1
2018-Jun-16 22:00N 48°44' W 123°23'  
2018-Jun-12 20:49N 48°41' W 123°24'1 1.2
2018-Jun-12 20:13N 48°40' W 123°24'16 0.3
2018-Jun-10 17:58N 48°34' W 123°01'2 4.6
2018-Jun-10 17:26N 48°32' W 123°00'0 0.0
2018-Jun-10 16:59N 48°32' W 123°00'0 0.0
2018-Jun-10 16:29N 48°32' W 123°00'0 0.0
2018-Jun-10 15:50N 48°32' W 123°00'0 0.0
2018-Jun-10 15:11N 48°32' W 123°00'0 0.0
2018-Jun-10 14:56N 48°32' W 123°00'0 0.0
2018-Jun-10 14:26N 48°32' W 123°00'0 0.0
2018-Jun-10 13:26N 48°32' W 123°00'0 0.0
2018-Jun-10 12:56N 48°32' W 123°00'0 0.0
2018-Jun-10 12:20N 48°32' W 123°00'0 0.0
2018-Jun-10 11:56N 48°32' W 123°00'0 0.0
2018-Jun-10 11:29N 48°32' W 123°00'0 0.0
2018-Jun-10 10:59N 48°32' W 123°00'0 0.0
2018-Jun-10 10:29N 48°32' W 123°00'0 0.0
2018-Jun-10 09:59N 48°32' W 123°00'0 0.0
2018-Jun-10 09:29N 48°32' W 123°00'0 0.0
2018-Jun-10 08:59N 48°32' W 123°00'0 0.0
2018-Jun-10 08:14N 48°32' W 123°00'0 0.0
2018-Jun-10 07:59N 48°32' W 123°00'0 0.0
2018-Jun-10 07:26N 48°32' W 123°00'0 0.0
2018-Jun-10 06:59N 48°32' W 123°00'0 0.0
2018-Jun-10 06:29N 48°32' W 123°00'0 0.0
2018-Jun-10 05:50N 48°32' W 123°00'0 0.0
2018-Jun-10 05:29N 48°32' W 123°00'0 0.0
2018-Jun-10 04:41N 48°32' W 123°00'0 0.0
2018-Jun-10 04:20N 48°32' W 123°00'0 0.0
2018-Jun-10 03:59N 48°32' W 123°00'0 0.0
2018-Jun-10 03:11N 48°32' W 123°00'0 0.0
2018-Jun-10 02:56N 48°32' W 123°00'0 0.0
2018-Jun-10 02:29N 48°32' W 123°00'0 0.0
2018-Jun-10 01:56N 48°32' W 123°00'0 0.0
2018-Jun-10 01:29N 48°32' W 123°00'0 0.0
2018-Jun-10 00:59N 48°32' W 123°00'0 0.0
2018-Jun-10 00:26N 48°32' W 123°00'0 0.0
2018-Jun-09 23:56N 48°32' W 123°00'0 0.0
2018-Jun-09 23:29N 48°32' W 123°00'0 0.0
2018-Jun-09 22:59N 48°32' W 123°00'0 0.0
2018-Jun-09 22:29N 48°32' W 123°00'0 0.0
2018-Jun-09 21:59N 48°32' W 123°00'0 0.0
2018-Jun-09 21:25N 48°32' W 123°00'0 0.0
2018-Jun-09 20:57N 48°32' W 123°00'0 0.0
2018-Jun-09 20:30N 48°32' W 123°00'1 1.4
2018-Jun-09 20:00N 48°32' W 122°59'4916.3
2018-Jun-09 16:58N 47°48' W 122°27'715.3
2018-Jun-09 16:30N 47°41' W 122°25'1 2.5
2018-Jun-09 16:00N 47°40' W 122°24'3 5.6
2018-Jun-09 15:29N 47°39' W 122°20'0 0.0
2018-Jun-09 14:14N 47°39' W 122°20'0 0.0
2018-Jun-09 13:59N 47°39' W 122°20'0 0.0
2018-Jun-09 13:29N 47°39' W 122°20'0 0.0
2018-Jun-09 12:59N 47°39' W 122°20'  
Track history (hours):
 
Tides and Currents Weather Stations Pressure Air Temp Water Temp Dewpoint Dewpoint Depression Visibility Wind Speed Wind Dir Waves Ship Positions

Tammy J

Last reported at 2018-Jun-19 12:27 UTC. Time now 2018-Jun-19 12:33 UTC.
Position N 51°03' W 127°31'.

Length 16 m.

Type: Pleasure craft. MMSI: 338164347.

Date/timePositionNaut miles runAvg speedWind from/ knotsBaromVisibWave heightAir tempDewpointWater temp
2018-Jun-19 12:27N 51°03' W 127°31'0 0.0
2018-Jun-19 11:57N 51°03' W 127°31'0 0.0
2018-Jun-19 11:27N 51°03' W 127°31'0 0.0
2018-Jun-19 10:51N 51°03' W 127°31'0 0.0
2018-Jun-19 10:27N 51°03' W 127°31'0 0.0
2018-Jun-19 09:57N 51°03' W 127°31'0 0.0
2018-Jun-19 09:21N 51°03' W 127°31'0 0.0
2018-Jun-19 08:51N 51°03' W 127°31'0 0.0
2018-Jun-19 08:27N 51°03' W 127°31'0 0.0
2018-Jun-19 07:57N 51°03' W 127°31'0 0.0
2018-Jun-19 07:27N 51°03' W 127°31'0 0.0
2018-Jun-19 06:51N 51°03' W 127°31'0 0.0
2018-Jun-19 06:27N 51°03' W 127°31'0 0.0
2018-Jun-19 05:57N 51°03' W 127°31'0 0.0
2018-Jun-19 05:27N 51°03' W 127°31'0 0.0
2018-Jun-19 04:53N 51°03' W 127°31'0 0.0
2018-Jun-19 04:30N 51°03' W 127°31'0 0.0
2018-Jun-19 03:54N 51°03' W 127°31'0 0.0
2018-Jun-19 03:30N 51°03' W 127°31'0 0.0
2018-Jun-19 03:00N 51°03' W 127°31'0 0.0
2018-Jun-19 02:30N 51°03' W 127°31'0 0.0
2018-Jun-19 02:00N 51°03' W 127°31'0 0.0
2018-Jun-19 01:30N 51°03' W 127°31'0 0.0
2018-Jun-19 01:00N 51°03' W 127°31'0 0.0
2018-Jun-19 00:30N 51°03' W 127°31'0 0.0
2018-Jun-19 00:00N 51°03' W 127°31'0 0.0
2018-Jun-18 23:24N 51°03' W 127°31'0 0.0
2018-Jun-18 22:54N 51°03' W 127°31'1 2.0
2018-Jun-18 22:28N 51°02' W 127°31'3 7.3
2018-Jun-18 22:00N 50°59' W 127°32'5 9.5
2018-Jun-18 21:29N 50°56' W 127°26'5 9.3
2018-Jun-18 20:59N 50°52' W 127°22'5 9.9
2018-Jun-18 20:28N 50°47' W 127°18'77 3.4
2018-Jun-17 21:55N 50°19' W 125°25'4 9.5
2018-Jun-17 21:28N 50°15' W 125°23'511.0
2018-Jun-17 20:59N 50°10' W 125°22'510.7
2018-Jun-17 20:30N 50°06' W 125°17'611.7
2018-Jun-17 19:59N 50°00' W 125°12'611.2
2018-Jun-17 19:25N 49°55' W 125°06'5 9.8
2018-Jun-17 18:57N 49°52' W 125°02'5 9.9
2018-Jun-17 18:28N 49°48' W 124°57'510.9
2018-Jun-17 18:00N 49°44' W 124°52'510.5
2018-Jun-17 17:29N 49°40' W 124°46'510.1
2018-Jun-17 16:59N 49°36' W 124°41'61 3.5
2018-Jun-16 23:24N 48°56' W 123°31'5 9.6
2018-Jun-16 22:52N 48°52' W 123°26'7 9.3
2018-Jun-16 22:07N 48°45' W 123°23'1 9.1
2018-Jun-16 22:00N 48°44' W 123°23'  
2018-Jun-12 20:49N 48°41' W 123°24'1 1.2
2018-Jun-12 20:13N 48°40' W 123°24'16 0.3
2018-Jun-10 17:58N 48°34' W 123°01'2 4.6
2018-Jun-10 17:26N 48°32' W 123°00'0 0.0
2018-Jun-10 16:59N 48°32' W 123°00'0 0.0
2018-Jun-10 16:29N 48°32' W 123°00'0 0.0
2018-Jun-10 15:50N 48°32' W 123°00'0 0.0
2018-Jun-10 15:11N 48°32' W 123°00'0 0.0
2018-Jun-10 14:56N 48°32' W 123°00'0 0.0
2018-Jun-10 14:26N 48°32' W 123°00'0 0.0
2018-Jun-10 13:26N 48°32' W 123°00'0 0.0
2018-Jun-10 12:56N 48°32' W 123°00'0 0.0
2018-Jun-10 12:20N 48°32' W 123°00'0 0.0
2018-Jun-10 11:56N 48°32' W 123°00'0 0.0
2018-Jun-10 11:29N 48°32' W 123°00'0 0.0
2018-Jun-10 10:59N 48°32' W 123°00'0 0.0
2018-Jun-10 10:29N 48°32' W 123°00'0 0.0
2018-Jun-10 09:59N 48°32' W 123°00'0 0.0
2018-Jun-10 09:29N 48°32' W 123°00'0 0.0
2018-Jun-10 08:59N 48°32' W 123°00'0 0.0
2018-Jun-10 08:14N 48°32' W 123°00'0 0.0
2018-Jun-10 07:59N 48°32' W 123°00'0 0.0
2018-Jun-10 07:26N 48°32' W 123°00'0 0.0
2018-Jun-10 06:59N 48°32' W 123°00'0 0.0
2018-Jun-10 06:29N 48°32' W 123°00'0 0.0
2018-Jun-10 05:50N 48°32' W 123°00'0 0.0
2018-Jun-10 05:29N 48°32' W 123°00'0 0.0
2018-Jun-10 04:41N 48°32' W 123°00'0 0.0
2018-Jun-10 04:20N 48°32' W 123°00'0 0.0
2018-Jun-10 03:59N 48°32' W 123°00'0 0.0
2018-Jun-10 03:11N 48°32' W 123°00'0 0.0
2018-Jun-10 02:56N 48°32' W 123°00'0 0.0
2018-Jun-10 02:29N 48°32' W 123°00'0 0.0
2018-Jun-10 01:56N 48°32' W 123°00'0 0.0
2018-Jun-10 01:29N 48°32' W 123°00'0 0.0
2018-Jun-10 00:59N 48°32' W 123°00'0 0.0
2018-Jun-10 00:26N 48°32' W 123°00'0 0.0
2018-Jun-09 23:56N 48°32' W 123°00'0 0.0
2018-Jun-09 23:29N 48°32' W 123°00'0 0.0
2018-Jun-09 22:59N 48°32' W 123°00'0 0.0
2018-Jun-09 22:29N 48°32' W 123°00'0 0.0
2018-Jun-09 21:59N 48°32' W 123°00'0 0.0
2018-Jun-09 21:25N 48°32' W 123°00'0 0.0
2018-Jun-09 20:57N 48°32' W 123°00'0 0.0
2018-Jun-09 20:30N 48°32' W 123°00'1 1.4
2018-Jun-09 20:00N 48°32' W 122°59'4916.3
2018-Jun-09 16:58N 47°48' W 122°27'715.3
2018-Jun-09 16:30N 47°41' W 122°25'1 2.5
2018-Jun-09 16:00N 47°40' W 122°24'3 5.6
2018-Jun-09 15:29N 47°39' W 122°20'0 0.0
2018-Jun-09 14:14N 47°39' W 122°20'0 0.0
2018-Jun-09 13:59N 47°39' W 122°20'0 0.0
2018-Jun-09 13:29N 47°39' W 122°20'0 0.0
2018-Jun-09 12:59N 47°39' W 122°20'  

Dump ship's entire track history